• Join FlightAware (Why Join?)
  • Login
  • US Flag 
02:32AM EDT


 

Airport Tracker/Info


-or-


 

Live Flight TrackerFlight Track Log ✈ EJA122 ✈ 23-Sep-2013 ✈ KPLN - KCHO

Flight Track Log - Related Links

Times and Time Zones

All times are in EDT time to prevent confusion due to time zone crossing. See the EJA122 flight status page for this flight to view local times or setup timezone preferences in your user account.

Time Position Orientation Groundspeed Altitude Reporting Facility
EDT Latitude Longitude Course Direction KTS MPH feet Rate Location/Type
02:09PM 45.4972 -84.8247 212° Southwest 228 262 4,800  Level Minneapolis Center
02:10PM 45.4297 -84.8856 212° Southwest 240 276 8,400 3,000 Climbing Minneapolis Center
02:11PM 45.3536 -84.8722 173° South 268 308 11,100 2,460 Climbing Minneapolis Center
02:12PM 45.2722 -84.8544 171° South 281 323 13,600 2,400 Climbing Minneapolis Center
02:13PM 45.1772 -84.8389 173° South 301 346 16,100 2,040 Climbing Minneapolis Center
02:14PM 45.0900 -84.8250 174° South 314 361 17,900 1,800 Climbing Minneapolis Center
02:15PM 44.9983 -84.8106 174° South 313 360 19,900 1,680 Climbing Minneapolis Center
02:16PM 44.9042 -84.7914 172° South 324 373 21,400 1,440 Climbing Minneapolis Center
02:17PM 44.8100 -84.7736 172° South 335 386 22,900 1,440 Climbing Minneapolis Center
02:18PM 44.7128 -84.7542 172° South 346 398 24,500 1,440 Climbing Minneapolis Center
02:19PM 44.6189 -84.7039 159° South 358 412 26,000 1,380 Climbing Minneapolis Center
02:20PM 44.5244 -84.6575 161° South 359 413 27,400 1,140 Climbing Minneapolis Center
02:21PM 44.4269 -84.6089 160° South 366 421 28,400 1,080 Climbing Minneapolis Center
02:22PM 44.3061 -84.5475 160° South 382 440 29,700 1,080 Climbing Minneapolis Center
02:23PM 44.2042 -84.4964 160° South 386 444 30,700 960 Climbing Minneapolis Center
02:24PM 44.0994 -84.4442 160° South 395 455 31,700 960 Climbing Minneapolis Center
02:25PM 43.9947 -84.3922 160° South 399 459 32,800 960 Climbing Minneapolis Center
02:26PM 43.8825 -84.3369 160° South 402 463 33,800 840 Climbing Minneapolis Center
02:27PM 43.7758 -84.2833 160° South 405 466 34,600 720 Climbing Minneapolis Center
02:28PM 43.6664 -84.2306 161° South 412 474 35,400 660 Climbing Minneapolis Center
02:29PM 43.5553 -84.1747 160° South 419 482 36,000 540 Climbing Minneapolis Center
02:30PM 43.4211 -84.1092 160° South 425 489 36,600 480 Climbing Minneapolis Center
02:31PM 43.3497 -84.0736 160° South 432 497 36,900 180 Climbing Cleveland Center
02:32PM 43.2336 -84.0178 161° South 442 509 37,000  Climbing Cleveland Center
02:33PM 43.0992 -83.9533 161° South 449 517 37,000  Level Cleveland Center
02:34PM 42.9803 -83.8958 161° South 454 522 37,000  Level Cleveland Center
02:35PM 42.8611 -83.8394 161° South 455 524 37,000  Level Cleveland Center
02:36PM 42.7425 -83.7822 160° South 455 524 37,000  Level Cleveland Center
02:37PM 42.6203 -83.7469 168° South 453 521 37,000  Level Cleveland Center
02:38PM 42.4997 -83.7147 169° South 446 513 37,000  Level Cleveland Center
02:39PM 42.3553 -83.6753 169° South 447 514 37,000  Level Cleveland Center
02:40PM 42.2403 -83.6178 160° South 452 520 37,000  Level Cleveland Center
02:41PM 42.1169 -83.5542 159° South 455 524 37,000  Level Cleveland Center
02:43PM 41.9989 -83.4944 159° South 450 518 37,000  Level Cleveland Center
02:44PM 41.8703 -83.4286 159° South 449 517 37,000  Level Cleveland Center
02:45PM 41.7511 -83.3689 159° South 456 525 37,000  Level Cleveland Center
02:46PM 41.6325 -83.3092 159° South 457 526 37,000  Level Cleveland Center
02:47PM 41.5156 -83.2500 159° South 452 520 37,000  Level Cleveland Center
02:48PM 41.3958 -83.1914 160° South 459 528 37,000  Level Cleveland Center
02:49PM 41.2611 -83.1247 160° South 460 529 37,000  Level Cleveland Center
02:50PM 41.1417 -83.0669 160° South 456 525 37,000  Level Cleveland Center
02:51PM 41.0211 -83.0072 160° South 459 528 37,000  Level Cleveland Center
02:52PM 40.8800 -82.9381 160° South 459 528 37,000  Level Cleveland Center
02:53PM 40.7592 -82.8794 160° South 459 528 37,000  Level Cleveland Center
02:54PM 40.6383 -82.8211 160° South 461 531 37,000  Level Cleveland Center
02:55PM 40.5161 -82.7617 160° South 465 535 37,000  Level Cleveland Center
02:56PM 40.3911 -82.7014 160° South 473 544 37,000  Level Cleveland Center
02:57PM 40.2667 -82.6417 160° South 475 547 37,000  Level Cleveland Center
02:58PM 40.1500 -82.5550 150° Southeast 488 562 37,000  Level Cleveland Center
02:59PM 40.0539 -82.3842 126° Southeast 489 563 37,000  Level Cleveland Center
03:00PM 39.9800 -82.2331 123° Southeast 491 565 37,000  Level Cleveland Center
03:01PM 39.9072 -82.0811 122° Southeast 492 566 37,000  Level Cleveland Center
03:02PM 39.8339 -81.9311 122° Southeast 491 565 37,000  Level Cleveland Center
03:03PM 39.7600 -81.7803 122° Southeast 494 568 37,000 -300 Level Cleveland Center
03:04PM 39.6808 -81.6192 123° Southeast 492 566 36,500 -780 Descending Cleveland Center
03:05PM 39.6078 -81.4686 122° Southeast 494 568 35,400 -780 Descending Cleveland Center
03:06PM 39.5347 -81.3211 123° Southeast 489 563 35,000 -1,080 Descending Cleveland Center
03:07PM 39.4469 -81.1461 123° Southeast 488 562 33,200 -1,740 Descending Cleveland Center
03:08PM 39.3744 -81.0008 123° Southeast 484 557 31,500 -1,680 Descending Cleveland Center
03:09PM 39.3033 -80.8572 123° Southeast 479 551 29,800 -1,680 Descending Cleveland Center
03:11PM 39.2131 -80.6856 124° Southeast 474 545 27,700 -1,260 Descending Indianapolis Center
03:12PM 39.1408 -80.5422 123° Southeast 474 545 27,000 -360 Descending Indianapolis Center
03:13PM 39.0683 -80.3975 123° Southeast 478 550 27,000 -660 Level Indianapolis Center
03:14PM 38.9781 -80.2225 124° Southeast 486 559 25,700 -1,500 Descending Indianapolis Center
03:15PM 38.9042 -80.0772 123° Southeast 489 563 24,000 -1,800 Descending Indianapolis Center
03:16PM 38.8383 -79.9333 120° Southeast 468 539 22,000 -1,980 Descending Indianapolis Center
03:17PM 38.7769 -79.8072 122° Southeast 467 537 20,100 -2,040 Descending Washington Center
03:18PM 38.7169 -79.6733 120° Southeast 454 522 18,100 -1,920 Descending Washington Center
03:19PM 38.6603 -79.5558 122° Southeast 438 504 16,300 -1,920 Descending Washington Center
03:20PM 38.6019 -79.4306 121° Southeast 432 497 14,300 -2,040 Descending Washington Center
03:21PM 38.5453 -79.3081 121° Southeast 416 479 12,300 -2,040 Descending Washington Center
03:22PM 38.4886 -79.1886 121° Southeast 403 464 10,300 -1,260 Descending Washington Center
03:23PM 38.4394 -79.0803 120° Southeast 353 406 9,900 -240 Descending Washington Center
03:24PM 38.3964 -78.9881 121° Southeast 320 368 9,900 -900 Level Washington Center
03:25PM 38.3167 -78.8333 123° Southeast 289 333 7,600 -1,500 Descending Potomac TRACON
03:26PM 38.2833 -78.7667 122° Southeast 289 333 6,200 -1,380 Descending Potomac TRACON
03:27PM 38.2333 -78.6833 127° Southeast 285 328 5,000 -720 Descending Potomac TRACON
03:28PM 38.1833 -78.6167 134° Southeast 267 307 4,800 -600 Descending Potomac TRACON
03:29PM 38.1333 -78.5667 142° Southeast 230 265 3,800 -1,140 Descending Potomac TRACON
03:30PM 38.1000 -78.5167 130° Southeast 140 161 2,400 -1,200 Descending Potomac TRACON
03:31PM 38.1000 -78.4667 90° East 124 143 1,300 -1,140 Descending Potomac TRACON
03:33PM 38.1333 -78.4500 130° Southeast  Level FlightAware Approximate
03:40PM 38.1396 -78.4523 130° Southeast  Level Estimated
03:41PM 38.1333 -78.4500 130° Southeast  Level FlightAware Approximate